sensor_id;sensor_type;location;lat;lon;timestamp;P1;durP1;ratioP1;P2;durP2;ratioP2
13040;SDS011;6587;42.728;23.288;2023-02-04T00:00:01;12.33;;;6.87;;
13040;SDS011;6587;42.728;23.288;2023-02-04T00:02:31;12.80;;;6.47;;
13040;SDS011;6587;42.728;23.288;2023-02-04T00:04:58;11.03;;;7.00;;
13040;SDS011;6587;42.728;23.288;2023-02-04T00:07:25;10.10;;;6.17;;
13040;SDS011;6587;42.728;23.288;2023-02-04T00:09:52;8.93;;;5.63;;
13040;SDS011;6587;42.728;23.288;2023-02-04T00:12:20;10.27;;;6.03;;
13040;SDS011;6587;42.728;23.288;2023-02-04T00:14:47;8.77;;;5.50;;
13040;SDS011;6587;42.728;23.288;2023-02-04T00:17:14;8.87;;;5.03;;
13040;SDS011;6587;42.728;23.288;2023-02-04T00:19:41;7.90;;;4.60;;
13040;SDS011;6587;42.728;23.288;2023-02-04T00:22:08;8.47;;;5.07;;
13040;SDS011;6587;42.728;23.288;2023-02-04T00:24:36;8.60;;;5.40;;
13040;SDS011;6587;42.728;23.288;2023-02-04T00:27:04;7.57;;;4.40;;
13040;SDS011;6587;42.728;23.288;2023-02-04T00:29:32;9.47;;;5.30;;
13040;SDS011;6587;42.728;23.288;2023-02-04T00:31:59;10.57;;;5.40;;
13040;SDS011;6587;42.728;23.288;2023-02-04T00:34:26;10.57;;;5.53;;
13040;SDS011;6587;42.728;23.288;2023-02-04T00:36:53;10.20;;;5.30;;
13040;SDS011;6587;42.728;23.288;2023-02-04T00:39:20;10.43;;;5.93;;
13040;SDS011;6587;42.728;23.288;2023-02-04T00:41:47;9.50;;;5.80;;
13040;SDS011;6587;42.728;23.288;2023-02-04T00:44:14;8.83;;;5.00;;
13040;SDS011;6587;42.728;23.288;2023-02-04T00:46:42;8.53;;;5.73;;
13040;SDS011;6587;42.728;23.288;2023-02-04T00:49:09;10.20;;;6.13;;
13040;SDS011;6587;42.728;23.288;2023-02-04T00:51:37;9.23;;;5.20;;
13040;SDS011;6587;42.728;23.288;2023-02-04T00:54:05;7.07;;;4.43;;
13040;SDS011;6587;42.728;23.288;2023-02-04T00:56:32;8.40;;;4.17;;
13040;SDS011;6587;42.728;23.288;2023-02-04T00:58:59;7.17;;;4.43;;
13040;SDS011;6587;42.728;23.288;2023-02-04T01:01:26;7.10;;;4.27;;
13040;SDS011;6587;42.728;23.288;2023-02-04T01:03:55;6.83;;;4.40;;
13040;SDS011;6587;42.728;23.288;2023-02-04T01:06:22;6.20;;;4.23;;
13040;SDS011;6587;42.728;23.288;2023-02-04T01:08:49;6.03;;;4.10;;
13040;SDS011;6587;42.728;23.288;2023-02-04T01:11:16;6.10;;;4.57;;
13040;SDS011;6587;42.728;23.288;2023-02-04T01:13:44;7.03;;;4.67;;
13040;SDS011;6587;42.728;23.288;2023-02-04T01:16:11;8.57;;;5.03;;
13040;SDS011;6587;42.728;23.288;2023-02-04T01:18:38;7.40;;;4.40;;
13040;SDS011;6587;42.728;23.288;2023-02-04T01:21:07;7.40;;;5.33;;
13040;SDS011;6587;42.728;23.288;2023-02-04T01:23:34;9.83;;;5.27;;
13040;SDS011;6587;42.728;23.288;2023-02-04T01:26:01;9.77;;;5.50;;
13040;SDS011;6587;42.728;23.288;2023-02-04T01:28:28;7.40;;;5.10;;
13040;SDS011;6587;42.728;23.288;2023-02-04T01:30:57;13.03;;;6.33;;
13040;SDS011;6587;42.728;23.288;2023-02-04T01:33:24;8.10;;;5.20;;
13040;SDS011;6587;42.728;23.288;2023-02-04T01:35:50;7.97;;;4.80;;
13040;SDS011;6587;42.728;23.288;2023-02-04T01:38:19;10.33;;;5.37;;
13040;SDS011;6587;42.728;23.288;2023-02-04T01:40:46;7.57;;;4.83;;
13040;SDS011;6587;42.728;23.288;2023-02-04T01:43:13;8.17;;;4.77;;
13040;SDS011;6587;42.728;23.288;2023-02-04T01:45:42;9.67;;;4.97;;
13040;SDS011;6587;42.728;23.288;2023-02-04T01:48:09;6.80;;;3.97;;
13040;SDS011;6587;42.728;23.288;2023-02-04T01:50:37;7.77;;;4.60;;
13040;SDS011;6587;42.728;23.288;2023-02-04T01:53:04;5.63;;;3.67;;
13040;SDS011;6587;42.728;23.288;2023-02-04T01:55:32;5.87;;;4.07;;
13040;SDS011;6587;42.728;23.288;2023-02-04T01:57:59;7.23;;;3.73;;
13040;SDS011;6587;42.728;23.288;2023-02-04T02:00:28;7.70;;;4.20;;
13040;SDS011;6587;42.728;23.288;2023-02-04T02:02:56;5.43;;;3.77;;
13040;SDS011;6587;42.728;23.288;2023-02-04T02:05:26;5.33;;;3.33;;
13040;SDS011;6587;42.728;23.288;2023-02-04T02:07:57;9.50;;;3.83;;
13040;SDS011;6587;42.728;23.288;2023-02-04T02:10:27;6.27;;;3.60;;
13040;SDS011;6587;42.728;23.288;2023-02-04T02:12:56;7.60;;;3.83;;
13040;SDS011;6587;42.728;23.288;2023-02-04T02:15:23;7.40;;;3.87;;
13040;SDS011;6587;42.728;23.288;2023-02-04T02:17:51;6.07;;;4.50;;
13040;SDS011;6587;42.728;23.288;2023-02-04T02:20:20;7.77;;;4.37;;
13040;SDS011;6587;42.728;23.288;2023-02-04T02:22:51;9.57;;;4.90;;
13040;SDS011;6587;42.728;23.288;2023-02-04T02:25:25;7.20;;;4.27;;
13040;SDS011;6587;42.728;23.288;2023-02-04T02:27:52;11.47;;;4.80;;
13040;SDS011;6587;42.728;23.288;2023-02-04T02:30:20;10.77;;;5.03;;
13040;SDS011;6587;42.728;23.288;2023-02-04T02:32:47;9.93;;;5.03;;
13040;SDS011;6587;42.728;23.288;2023-02-04T02:35:16;7.83;;;4.43;;
13040;SDS011;6587;42.728;23.288;2023-02-04T02:37:43;10.70;;;5.20;;
13040;SDS011;6587;42.728;23.288;2023-02-04T02:40:11;7.57;;;4.63;;
13040;SDS011;6587;42.728;23.288;2023-02-04T02:42:40;9.53;;;4.90;;
13040;SDS011;6587;42.728;23.288;2023-02-04T02:45:11;7.53;;;4.83;;
13040;SDS011;6587;42.728;23.288;2023-02-04T02:47:43;11.77;;;5.77;;
13040;SDS011;6587;42.728;23.288;2023-02-04T02:50:11;9.63;;;5.53;;
13040;SDS011;6587;42.728;23.288;2023-02-04T02:52:42;8.40;;;4.77;;
13040;SDS011;6587;42.728;23.288;2023-02-04T02:55:11;9.60;;;4.80;;
13040;SDS011;6587;42.728;23.288;2023-02-04T02:57:41;7.60;;;4.43;;
13040;SDS011;6587;42.728;23.288;2023-02-04T03:00:14;8.07;;;5.00;;
13040;SDS011;6587;42.728;23.288;2023-02-04T03:02:43;8.47;;;4.70;;
13040;SDS011;6587;42.728;23.288;2023-02-04T03:05:11;7.57;;;4.33;;
13040;SDS011;6587;42.728;23.288;2023-02-04T03:07:40;10.50;;;4.67;;
13040;SDS011;6587;42.728;23.288;2023-02-04T03:10:07;10.83;;;4.73;;
13040;SDS011;6587;42.728;23.288;2023-02-04T03:12:36;9.67;;;5.00;;
13040;SDS011;6587;42.728;23.288;2023-02-04T03:15:06;8.30;;;4.80;;
13040;SDS011;6587;42.728;23.288;2023-02-04T03:17:33;8.57;;;4.70;;
13040;SDS011;6587;42.728;23.288;2023-02-04T03:20:00;7.30;;;4.37;;
13040;SDS011;6587;42.728;23.288;2023-02-04T03:22:29;7.13;;;4.60;;
13040;SDS011;6587;42.728;23.288;2023-02-04T03:24:57;7.97;;;4.20;;
13040;SDS011;6587;42.728;23.288;2023-02-04T03:27:23;8.40;;;4.67;;
13040;SDS011;6587;42.728;23.288;2023-02-04T03:29:50;12.87;;;5.17;;
13040;SDS011;6587;42.728;23.288;2023-02-04T03:32:19;11.53;;;4.43;;
13040;SDS011;6587;42.728;23.288;2023-02-04T03:34:46;11.00;;;5.13;;
13040;SDS011;6587;42.728;23.288;2023-02-04T03:37:12;6.83;;;4.13;;
13040;SDS011;6587;42.728;23.288;2023-02-04T03:39:39;7.97;;;5.03;;
13040;SDS011;6587;42.728;23.288;2023-02-04T03:42:06;7.80;;;4.50;;
13040;SDS011;6587;42.728;23.288;2023-02-04T03:44:33;7.60;;;4.77;;
13040;SDS011;6587;42.728;23.288;2023-02-04T03:47:00;6.47;;;4.20;;
13040;SDS011;6587;42.728;23.288;2023-02-04T03:49:28;9.83;;;5.03;;
13040;SDS011;6587;42.728;23.288;2023-02-04T03:51:56;13.17;;;4.93;;
13040;SDS011;6587;42.728;23.288;2023-02-04T03:54:23;7.53;;;4.93;;
13040;SDS011;6587;42.728;23.288;2023-02-04T03:56:50;9.93;;;5.30;;
13040;SDS011;6587;42.728;23.288;2023-02-04T03:59:17;8.97;;;4.90;;
13040;SDS011;6587;42.728;23.288;2023-02-04T04:01:44;9.03;;;4.53;;
13040;SDS011;6587;42.728;23.288;2023-02-04T04:04:10;9.30;;;5.57;;
13040;SDS011;6587;42.728;23.288;2023-02-04T04:06:39;9.60;;;4.90;;
13040;SDS011;6587;42.728;23.288;2023-02-04T04:09:06;7.40;;;4.97;;
13040;SDS011;6587;42.728;23.288;2023-02-04T04:11:32;8.30;;;4.77;;
13040;SDS011;6587;42.728;23.288;2023-02-04T04:13:59;10.10;;;5.90;;
13040;SDS011;6587;42.728;23.288;2023-02-04T04:16:26;8.57;;;5.40;;
13040;SDS011;6587;42.728;23.288;2023-02-04T04:18:53;8.80;;;4.93;;
13040;SDS011;6587;42.728;23.288;2023-02-04T04:21:21;8.00;;;5.20;;
13040;SDS011;6587;42.728;23.288;2023-02-04T04:23:49;7.90;;;4.67;;
13040;SDS011;6587;42.728;23.288;2023-02-04T04:26:16;6.90;;;4.63;;
13040;SDS011;6587;42.728;23.288;2023-02-04T04:28:43;8.63;;;5.03;;
13040;SDS011;6587;42.728;23.288;2023-02-04T04:31:10;6.07;;;4.40;;
13040;SDS011;6587;42.728;23.288;2023-02-04T04:33:37;11.53;;;5.13;;
13040;SDS011;6587;42.728;23.288;2023-02-04T04:36:04;8.70;;;5.80;;
13040;SDS011;6587;42.728;23.288;2023-02-04T04:38:32;9.20;;;4.80;;
13040;SDS011;6587;42.728;23.288;2023-02-04T04:41:01;9.93;;;5.43;;
13040;SDS011;6587;42.728;23.288;2023-02-04T04:43:28;11.00;;;5.30;;
13040;SDS011;6587;42.728;23.288;2023-02-04T04:45:54;9.03;;;5.37;;
13040;SDS011;6587;42.728;23.288;2023-02-04T04:48:21;9.63;;;5.63;;
13040;SDS011;6587;42.728;23.288;2023-02-04T04:50:49;8.10;;;5.30;;
13040;SDS011;6587;42.728;23.288;2023-02-04T04:53:16;7.97;;;5.00;;
13040;SDS011;6587;42.728;23.288;2023-02-04T04:55:43;5.50;;;3.83;;
13040;SDS011;6587;42.728;23.288;2023-02-04T04:58:11;5.53;;;3.33;;
13040;SDS011;6587;42.728;23.288;2023-02-04T05:00:38;3.90;;;2.27;;
13040;SDS011;6587;42.728;23.288;2023-02-04T05:03:05;2.43;;;1.80;;
13040;SDS011;6587;42.728;23.288;2023-02-04T05:05:32;2.87;;;1.97;;
13040;SDS011;6587;42.728;23.288;2023-02-04T05:08:04;2.90;;;1.90;;
13040;SDS011;6587;42.728;23.288;2023-02-04T05:10:30;4.53;;;1.93;;
13040;SDS011;6587;42.728;23.288;2023-02-04T05:12:57;2.50;;;1.93;;
13040;SDS011;6587;42.728;23.288;2023-02-04T05:15:26;2.93;;;1.73;;
13040;SDS011;6587;42.728;23.288;2023-02-04T05:17:53;2.47;;;1.90;;
13040;SDS011;6587;42.728;23.288;2023-02-04T05:20:19;2.80;;;2.30;;
13040;SDS011;6587;42.728;23.288;2023-02-04T05:22:46;2.80;;;2.20;;
13040;SDS011;6587;42.728;23.288;2023-02-04T05:25:13;4.67;;;2.83;;
13040;SDS011;6587;42.728;23.288;2023-02-04T05:27:41;3.03;;;1.57;;
13040;SDS011;6587;42.728;23.288;2023-02-04T05:30:08;2.83;;;1.83;;
13040;SDS011;6587;42.728;23.288;2023-02-04T05:32:38;4.47;;;2.90;;
13040;SDS011;6587;42.728;23.288;2023-02-04T05:35:05;3.73;;;2.30;;
13040;SDS011;6587;42.728;23.288;2023-02-04T05:37:33;2.23;;;1.90;;
13040;SDS011;6587;42.728;23.288;2023-02-04T05:39:59;5.43;;;2.17;;
13040;SDS011;6587;42.728;23.288;2023-02-04T05:42:26;4.33;;;2.83;;
13040;SDS011;6587;42.728;23.288;2023-02-04T05:44:53;3.93;;;2.33;;
13040;SDS011;6587;42.728;23.288;2023-02-04T05:47:20;8.73;;;2.63;;
13040;SDS011;6587;42.728;23.288;2023-02-04T05:49:48;5.57;;;2.87;;
13040;SDS011;6587;42.728;23.288;2023-02-04T05:52:15;5.33;;;2.93;;
13040;SDS011;6587;42.728;23.288;2023-02-04T05:54:42;6.10;;;2.90;;
13040;SDS011;6587;42.728;23.288;2023-02-04T05:57:09;5.83;;;3.60;;
13040;SDS011;6587;42.728;23.288;2023-02-04T05:59:35;5.87;;;3.47;;
13040;SDS011;6587;42.728;23.288;2023-02-04T06:02:02;4.70;;;3.10;;
13040;SDS011;6587;42.728;23.288;2023-02-04T06:04:30;5.83;;;3.83;;
13040;SDS011;6587;42.728;23.288;2023-02-04T06:06:58;9.07;;;3.43;;
13040;SDS011;6587;42.728;23.288;2023-02-04T06:09:25;7.27;;;4.60;;
13040;SDS011;6587;42.728;23.288;2023-02-04T06:11:51;5.30;;;3.60;;
13040;SDS011;6587;42.728;23.288;2023-02-04T06:14:18;12.90;;;5.67;;
13040;SDS011;6587;42.728;23.288;2023-02-04T06:16:45;7.97;;;3.83;;
13040;SDS011;6587;42.728;23.288;2023-02-04T06:19:12;7.50;;;3.37;;
13040;SDS011;6587;42.728;23.288;2023-02-04T06:21:39;7.50;;;3.80;;
13040;SDS011;6587;42.728;23.288;2023-02-04T06:24:09;4.43;;;3.30;;
13040;SDS011;6587;42.728;23.288;2023-02-04T06:26:36;8.00;;;4.13;;
13040;SDS011;6587;42.728;23.288;2023-02-04T06:29:03;7.77;;;4.10;;
13040;SDS011;6587;42.728;23.288;2023-02-04T06:31:30;7.00;;;4.97;;
13040;SDS011;6587;42.728;23.288;2023-02-04T06:33:57;8.40;;;4.27;;
13040;SDS011;6587;42.728;23.288;2023-02-04T06:36:25;9.00;;;3.90;;
13040;SDS011;6587;42.728;23.288;2023-02-04T06:38:52;6.73;;;4.00;;
13040;SDS011;6587;42.728;23.288;2023-02-04T06:41:21;7.43;;;4.53;;
13040;SDS011;6587;42.728;23.288;2023-02-04T06:43:48;11.13;;;5.93;;
13040;SDS011;6587;42.728;23.288;2023-02-04T06:46:15;6.00;;;4.30;;
13040;SDS011;6587;42.728;23.288;2023-02-04T06:48:41;8.33;;;4.80;;
13040;SDS011;6587;42.728;23.288;2023-02-04T06:51:08;8.83;;;4.97;;
13040;SDS011;6587;42.728;23.288;2023-02-04T06:53:35;17.83;;;9.83;;
13040;SDS011;6587;42.728;23.288;2023-02-04T06:56:02;9.83;;;4.40;;
13040;SDS011;6587;42.728;23.288;2023-02-04T06:58:31;5.90;;;3.57;;
13040;SDS011;6587;42.728;23.288;2023-02-04T07:00:58;6.73;;;3.70;;
13040;SDS011;6587;42.728;23.288;2023-02-04T07:03:24;7.20;;;4.23;;
13040;SDS011;6587;42.728;23.288;2023-02-04T07:05:51;5.53;;;3.20;;
13040;SDS011;6587;42.728;23.288;2023-02-04T07:08:18;7.53;;;3.47;;
13040;SDS011;6587;42.728;23.288;2023-02-04T07:10:46;5.97;;;3.40;;
13040;SDS011;6587;42.728;23.288;2023-02-04T07:13:12;7.10;;;4.50;;
13040;SDS011;6587;42.728;23.288;2023-02-04T07:15:41;6.23;;;3.10;;
13040;SDS011;6587;42.728;23.288;2023-02-04T07:18:08;5.47;;;3.57;;
13040;SDS011;6587;42.728;23.288;2023-02-04T07:20:34;7.57;;;3.80;;
13040;SDS011;6587;42.728;23.288;2023-02-04T07:23:01;4.70;;;3.00;;
13040;SDS011;6587;42.728;23.288;2023-02-04T07:25:28;6.97;;;3.57;;
13040;SDS011;6587;42.728;23.288;2023-02-04T07:27:55;5.73;;;4.00;;
13040;SDS011;6587;42.728;23.288;2023-02-04T07:30:23;4.63;;;3.43;;
13040;SDS011;6587;42.728;23.288;2023-02-04T07:32:51;5.83;;;3.27;;
13040;SDS011;6587;42.728;23.288;2023-02-04T07:35:18;6.43;;;3.80;;
13040;SDS011;6587;42.728;23.288;2023-02-04T07:37:45;3.87;;;3.23;;
13040;SDS011;6587;42.728;23.288;2023-02-04T07:40:12;4.73;;;2.80;;
13040;SDS011;6587;42.728;23.288;2023-02-04T10:39:28;3.47;;;2.83;;
13040;SDS011;6587;42.728;23.288;2023-02-04T10:41:56;3.30;;;2.67;;
13040;SDS011;6587;42.728;23.288;2023-02-04T10:44:25;4.73;;;3.30;;
13040;SDS011;6587;42.728;23.288;2023-02-04T10:47:00;3.47;;;2.37;;
13040;SDS011;6587;42.728;23.288;2023-02-04T10:49:28;4.10;;;3.07;;
13040;SDS011;6587;42.728;23.288;2023-02-04T10:51:55;4.50;;;2.53;;
13040;SDS011;6587;42.728;23.288;2023-02-04T10:54:23;5.30;;;3.80;;
13040;SDS011;6587;42.728;23.288;2023-02-04T10:56:56;1.70;;;1.60;;
13040;SDS011;6587;42.728;23.288;2023-02-04T10:59:25;3.87;;;2.10;;
13040;SDS011;6587;42.728;23.288;2023-02-04T11:01:54;3.80;;;2.50;;
13040;SDS011;6587;42.728;23.288;2023-02-04T11:04:22;4.73;;;2.90;;
13040;SDS011;6587;42.728;23.288;2023-02-04T11:06:49;1.40;;;1.30;;
13040;SDS011;6587;42.728;23.288;2023-02-04T11:09:18;6.07;;;3.43;;
13040;SDS011;6587;42.728;23.288;2023-02-04T11:11:46;5.13;;;2.60;;
13040;SDS011;6587;42.728;23.288;2023-02-04T11:14:21;2.60;;;2.00;;
13040;SDS011;6587;42.728;23.288;2023-02-04T11:16:49;2.97;;;2.10;;
13040;SDS011;6587;42.728;23.288;2023-02-04T11:19:30;3.30;;;2.50;;
13040;SDS011;6587;42.728;23.288;2023-02-04T11:22:19;4.07;;;2.50;;
13040;SDS011;6587;42.728;23.288;2023-02-04T11:24:48;4.93;;;2.53;;
13040;SDS011;6587;42.728;23.288;2023-02-04T11:27:23;3.47;;;2.20;;
13040;SDS011;6587;42.728;23.288;2023-02-04T11:30:07;5.43;;;3.47;;
13040;SDS011;6587;42.728;23.288;2023-02-04T11:32:54;3.80;;;2.80;;
13040;SDS011;6587;42.728;23.288;2023-02-04T11:35:26;4.53;;;2.70;;
13040;SDS011;6587;42.728;23.288;2023-02-04T11:37:54;3.73;;;2.30;;
13040;SDS011;6587;42.728;23.288;2023-02-04T11:40:23;3.57;;;2.97;;
13040;SDS011;6587;42.728;23.288;2023-02-04T11:42:59;4.73;;;2.47;;
13040;SDS011;6587;42.728;23.288;2023-02-04T11:45:31;2.07;;;1.80;;
13040;SDS011;6587;42.728;23.288;2023-02-04T11:48:00;3.67;;;2.20;;
13040;SDS011;6587;42.728;23.288;2023-02-04T11:50:29;2.63;;;2.07;;
13040;SDS011;6587;42.728;23.288;2023-02-04T11:52:57;3.47;;;2.13;;
13040;SDS011;6587;42.728;23.288;2023-02-04T11:55:26;3.50;;;2.53;;
13040;SDS011;6587;42.728;23.288;2023-02-04T11:57:55;2.47;;;2.10;;
13040;SDS011;6587;42.728;23.288;2023-02-04T12:00:23;5.37;;;2.93;;
13040;SDS011;6587;42.728;23.288;2023-02-04T12:02:56;3.77;;;2.60;;
13040;SDS011;6587;42.728;23.288;2023-02-04T12:05:34;5.03;;;3.63;;
13040;SDS011;6587;42.728;23.288;2023-02-04T12:08:08;4.40;;;3.13;;
13040;SDS011;6587;42.728;23.288;2023-02-04T12:10:37;2.50;;;2.10;;
13040;SDS011;6587;42.728;23.288;2023-02-04T12:13:11;1.20;;;1.10;;
13040;SDS011;6587;42.728;23.288;2023-02-04T12:15:41;3.53;;;2.73;;
13040;SDS011;6587;42.728;23.288;2023-02-04T12:18:21;2.13;;;1.73;;
13040;SDS011;6587;42.728;23.288;2023-02-04T12:20:48;1.60;;;1.50;;
13040;SDS011;6587;42.728;23.288;2023-02-04T12:23:15;2.47;;;1.73;;
13040;SDS011;6587;42.728;23.288;2023-02-04T12:25:42;1.83;;;1.60;;
13040;SDS011;6587;42.728;23.288;2023-02-04T12:28:09;2.20;;;2.00;;
13040;SDS011;6587;42.728;23.288;2023-02-04T12:30:36;1.07;;;1.07;;
13040;SDS011;6587;42.728;23.288;2023-02-04T12:33:03;1.47;;;1.30;;
13040;SDS011;6587;42.728;23.288;2023-02-04T12:35:32;2.00;;;1.57;;
13040;SDS011;6587;42.728;23.288;2023-02-04T12:37:59;2.20;;;1.20;;
13040;SDS011;6587;42.728;23.288;2023-02-04T12:40:27;2.57;;;1.40;;
13040;SDS011;6587;42.728;23.288;2023-02-04T12:42:54;0.83;;;0.83;;
13040;SDS011;6587;42.728;23.288;2023-02-04T12:45:21;3.30;;;1.83;;
13040;SDS011;6587;42.728;23.288;2023-02-04T12:47:48;3.37;;;2.07;;
13040;SDS011;6587;42.728;23.288;2023-02-04T12:50:16;2.10;;;1.50;;
13040;SDS011;6587;42.728;23.288;2023-02-04T12:52:48;1.70;;;1.40;;
13040;SDS011;6587;42.728;23.288;2023-02-04T12:55:16;3.37;;;1.43;;
13040;SDS011;6587;42.728;23.288;2023-02-04T12:57:43;1.00;;;0.90;;
13040;SDS011;6587;42.728;23.288;2023-02-04T13:00:11;2.07;;;1.43;;
13040;SDS011;6587;42.728;23.288;2023-02-04T13:02:42;0.70;;;0.70;;
13040;SDS011;6587;42.728;23.288;2023-02-04T13:05:09;0.87;;;0.87;;
13040;SDS011;6587;42.728;23.288;2023-02-04T13:07:37;0.80;;;0.80;;
13040;SDS011;6587;42.728;23.288;2023-02-04T13:10:06;2.27;;;1.80;;
13040;SDS011;6587;42.728;23.288;2023-02-04T13:12:34;1.97;;;1.67;;
13040;SDS011;6587;42.728;23.288;2023-02-04T13:15:01;0.90;;;0.90;;
13040;SDS011;6587;42.728;23.288;2023-02-04T13:17:29;1.17;;;1.07;;
13040;SDS011;6587;42.728;23.288;2023-02-04T13:19:56;0.73;;;0.73;;
13040;SDS011;6587;42.728;23.288;2023-02-04T13:22:22;1.37;;;1.23;;
13040;SDS011;6587;42.728;23.288;2023-02-04T13:24:49;1.97;;;1.10;;
13040;SDS011;6587;42.728;23.288;2023-02-04T13:27:17;1.60;;;1.50;;
13040;SDS011;6587;42.728;23.288;2023-02-04T13:29:44;1.10;;;1.00;;
13040;SDS011;6587;42.728;23.288;2023-02-04T13:32:11;1.27;;;1.10;;
13040;SDS011;6587;42.728;23.288;2023-02-04T13:34:38;1.73;;;1.60;;
13040;SDS011;6587;42.728;23.288;2023-02-04T13:37:05;1.90;;;1.63;;
13040;SDS011;6587;42.728;23.288;2023-02-04T13:39:32;1.63;;;1.30;;
13040;SDS011;6587;42.728;23.288;2023-02-04T13:41:59;1.63;;;1.53;;
13040;SDS011;6587;42.728;23.288;2023-02-04T13:44:27;2.13;;;1.80;;
13040;SDS011;6587;42.728;23.288;2023-02-04T13:46:54;1.50;;;1.40;;
13040;SDS011;6587;42.728;23.288;2023-02-04T13:49:21;2.17;;;1.40;;
13040;SDS011;6587;42.728;23.288;2023-02-04T13:51:48;2.10;;;1.67;;
13040;SDS011;6587;42.728;23.288;2023-02-04T13:54:14;2.97;;;2.40;;
13040;SDS011;6587;42.728;23.288;2023-02-04T13:56:41;2.20;;;2.00;;
13040;SDS011;6587;42.728;23.288;2023-02-04T13:59:08;2.93;;;2.07;;
13040;SDS011;6587;42.728;23.288;2023-02-04T14:01:36;2.53;;;1.97;;
13040;SDS011;6587;42.728;23.288;2023-02-04T14:04:03;2.63;;;2.23;;
13040;SDS011;6587;42.728;23.288;2023-02-04T14:06:30;3.33;;;2.60;;
13040;SDS011;6587;42.728;23.288;2023-02-04T14:08:59;3.97;;;2.93;;
13040;SDS011;6587;42.728;23.288;2023-02-04T14:11:26;3.83;;;2.67;;
13040;SDS011;6587;42.728;23.288;2023-02-04T14:13:54;2.83;;;2.50;;
13040;SDS011;6587;42.728;23.288;2023-02-04T14:16:21;3.60;;;2.60;;
13040;SDS011;6587;42.728;23.288;2023-02-04T14:18:49;4.20;;;3.37;;
13040;SDS011;6587;42.728;23.288;2023-02-04T14:21:16;4.10;;;2.90;;
13040;SDS011;6587;42.728;23.288;2023-02-04T14:23:43;2.53;;;2.23;;
13040;SDS011;6587;42.728;23.288;2023-02-04T14:26:10;2.90;;;2.60;;
13040;SDS011;6587;42.728;23.288;2023-02-04T14:28:37;4.13;;;2.87;;
13040;SDS011;6587;42.728;23.288;2023-02-04T14:31:03;3.37;;;2.17;;
13040;SDS011;6587;42.728;23.288;2023-02-04T14:33:30;2.67;;;1.90;;
13040;SDS011;6587;42.728;23.288;2023-02-04T14:35:59;2.53;;;2.00;;
13040;SDS011;6587;42.728;23.288;2023-02-04T14:38:26;1.50;;;1.40;;
13040;SDS011;6587;42.728;23.288;2023-02-04T14:40:55;1.53;;;1.40;;
13040;SDS011;6587;42.728;23.288;2023-02-04T14:43:23;2.87;;;1.77;;
13040;SDS011;6587;42.728;23.288;2023-02-04T14:45:50;1.73;;;1.53;;
13040;SDS011;6587;42.728;23.288;2023-02-04T14:48:18;2.20;;;2.00;;
13040;SDS011;6587;42.728;23.288;2023-02-04T14:50:44;2.17;;;1.60;;
13040;SDS011;6587;42.728;23.288;2023-02-04T14:53:13;1.90;;;1.80;;
13040;SDS011;6587;42.728;23.288;2023-02-04T14:55:39;2.13;;;1.93;;
13040;SDS011;6587;42.728;23.288;2023-02-04T14:58:06;2.40;;;2.20;;
13040;SDS011;6587;42.728;23.288;2023-02-04T15:00:33;3.67;;;1.83;;
13040;SDS011;6587;42.728;23.288;2023-02-04T15:03:00;2.30;;;2.10;;
13040;SDS011;6587;42.728;23.288;2023-02-04T15:05:27;3.10;;;2.07;;
13040;SDS011;6587;42.728;23.288;2023-02-04T15:07:54;3.17;;;2.40;;
13040;SDS011;6587;42.728;23.288;2023-02-04T15:10:22;2.50;;;2.20;;
13040;SDS011;6587;42.728;23.288;2023-02-04T15:12:49;2.37;;;2.17;;
13040;SDS011;6587;42.728;23.288;2023-02-04T15:15:16;3.30;;;2.73;;
13040;SDS011;6587;42.728;23.288;2023-02-04T15:17:43;6.23;;;3.10;;
13040;SDS011;6587;42.728;23.288;2023-02-04T15:20:10;4.00;;;3.23;;
13040;SDS011;6587;42.728;23.288;2023-02-04T15:22:37;3.73;;;2.80;;
13040;SDS011;6587;42.728;23.288;2023-02-04T15:25:04;2.60;;;2.20;;
13040;SDS011;6587;42.728;23.288;2023-02-04T15:27:33;4.03;;;3.50;;
13040;SDS011;6587;42.728;23.288;2023-02-04T15:29:59;2.87;;;2.30;;
13040;SDS011;6587;42.728;23.288;2023-02-04T15:32:26;3.80;;;3.03;;
13040;SDS011;6587;42.728;23.288;2023-02-04T15:34:53;3.20;;;2.23;;
13040;SDS011;6587;42.728;23.288;2023-02-04T15:37:20;3.20;;;2.40;;
13040;SDS011;6587;42.728;23.288;2023-02-04T15:39:48;3.70;;;2.37;;
13040;SDS011;6587;42.728;23.288;2023-02-04T15:42:15;2.10;;;1.90;;
13040;SDS011;6587;42.728;23.288;2023-02-04T15:44:43;2.00;;;1.80;;
13040;SDS011;6587;42.728;23.288;2023-02-04T15:47:10;1.70;;;1.60;;
13040;SDS011;6587;42.728;23.288;2023-02-04T15:49:37;1.80;;;1.70;;
13040;SDS011;6587;42.728;23.288;2023-02-04T15:52:04;2.93;;;2.40;;
13040;SDS011;6587;42.728;23.288;2023-02-04T15:54:31;3.37;;;2.30;;
13040;SDS011;6587;42.728;23.288;2023-02-04T15:56:58;2.73;;;2.53;;
13040;SDS011;6587;42.728;23.288;2023-02-04T15:59:25;3.67;;;2.80;;
13040;SDS011;6587;42.728;23.288;2023-02-04T16:01:53;3.23;;;2.80;;
13040;SDS011;6587;42.728;23.288;2023-02-04T16:04:20;3.43;;;2.13;;
13040;SDS011;6587;42.728;23.288;2023-02-04T16:06:47;3.13;;;2.57;;
13040;SDS011;6587;42.728;23.288;2023-02-04T16:09:14;3.57;;;2.47;;
13040;SDS011;6587;42.728;23.288;2023-02-04T16:11:41;3.00;;;2.57;;
13040;SDS011;6587;42.728;23.288;2023-02-04T16:14:08;2.60;;;2.40;;
13040;SDS011;6587;42.728;23.288;2023-02-04T16:16:35;6.40;;;3.50;;
13040;SDS011;6587;42.728;23.288;2023-02-04T16:19:03;3.33;;;2.20;;
13040;SDS011;6587;42.728;23.288;2023-02-04T16:21:30;3.40;;;3.00;;
13040;SDS011;6587;42.728;23.288;2023-02-04T16:23:56;3.43;;;2.40;;
13040;SDS011;6587;42.728;23.288;2023-02-04T16:26:23;3.30;;;2.60;;
13040;SDS011;6587;42.728;23.288;2023-02-04T16:28:50;2.83;;;2.50;;
13040;SDS011;6587;42.728;23.288;2023-02-04T16:31:18;5.97;;;4.20;;
13040;SDS011;6587;42.728;23.288;2023-02-04T16:33:45;13.60;;;3.97;;
13040;SDS011;6587;42.728;23.288;2023-02-04T16:36:13;2.97;;;2.43;;
13040;SDS011;6587;42.728;23.288;2023-02-04T16:38:40;3.03;;;2.77;;
13040;SDS011;6587;42.728;23.288;2023-02-04T16:41:08;3.23;;;2.83;;
13040;SDS011;6587;42.728;23.288;2023-02-04T16:43:35;2.60;;;2.40;;
13040;SDS011;6587;42.728;23.288;2023-02-04T16:46:02;3.30;;;3.00;;
13040;SDS011;6587;42.728;23.288;2023-02-04T16:48:29;5.13;;;3.27;;
13040;SDS011;6587;42.728;23.288;2023-02-04T16:50:56;3.17;;;2.83;;
13040;SDS011;6587;42.728;23.288;2023-02-04T16:53:24;3.30;;;3.00;;
13040;SDS011;6587;42.728;23.288;2023-02-04T16:55:51;5.37;;;3.57;;
13040;SDS011;6587;42.728;23.288;2023-02-04T16:58:19;3.47;;;3.17;;
13040;SDS011;6587;42.728;23.288;2023-02-04T17:00:47;5.27;;;3.83;;
13040;SDS011;6587;42.728;23.288;2023-02-04T17:03:14;4.27;;;2.83;;
13040;SDS011;6587;42.728;23.288;2023-02-04T17:05:41;4.30;;;3.33;;
13040;SDS011;6587;42.728;23.288;2023-02-04T17:08:08;4.47;;;2.83;;
13040;SDS011;6587;42.728;23.288;2023-02-04T17:10:37;3.40;;;2.87;;
13040;SDS011;6587;42.728;23.288;2023-02-04T17:13:21;3.53;;;3.17;;
13040;SDS011;6587;42.728;23.288;2023-02-04T17:15:48;4.87;;;3.87;;
13040;SDS011;6587;42.728;23.288;2023-02-04T17:18:15;5.17;;;4.20;;
13040;SDS011;6587;42.728;23.288;2023-02-04T17:20:42;7.83;;;4.17;;
13040;SDS011;6587;42.728;23.288;2023-02-04T17:23:09;3.93;;;3.47;;
13040;SDS011;6587;42.728;23.288;2023-02-04T17:25:37;4.73;;;3.27;;
13040;SDS011;6587;42.728;23.288;2023-02-04T17:28:04;3.37;;;3.07;;
13040;SDS011;6587;42.728;23.288;2023-02-04T17:30:31;5.03;;;3.10;;
13040;SDS011;6587;42.728;23.288;2023-02-04T17:32:57;3.70;;;3.20;;
13040;SDS011;6587;42.728;23.288;2023-02-04T17:35:24;4.57;;;3.33;;
13040;SDS011;6587;42.728;23.288;2023-02-04T17:37:51;4.23;;;2.77;;
13040;SDS011;6587;42.728;23.288;2023-02-04T17:40:18;7.00;;;4.00;;
13040;SDS011;6587;42.728;23.288;2023-02-04T17:42:47;4.93;;;2.90;;
13040;SDS011;6587;42.728;23.288;2023-02-04T17:45:14;3.23;;;2.90;;